createdAt,value
2022-09-29T00:00:28.990Z,1.13
2022-09-29T00:04:33.885Z,1.17
2022-09-29T00:08:38.562Z,1.33
2022-09-29T00:12:42.600Z,1.15
2022-09-29T00:16:47.010Z,1.17
2022-09-29T00:20:59.800Z,1.00
2022-09-29T00:25:03.312Z,1.10
2022-09-29T00:29:06.911Z,0.60
2022-09-29T00:33:09.969Z,1.23
2022-09-29T00:37:15.535Z,0.65
2022-09-29T00:41:22.096Z,0.40
2022-09-29T00:45:25.937Z,0.52
2022-09-29T00:49:35.017Z,0.47
2022-09-29T00:53:39.989Z,0.40
2022-09-29T01:01:53.339Z,0.70
2022-09-29T01:06:00.349Z,1.05
2022-09-29T01:10:07.292Z,0.85
2022-09-29T01:14:12.689Z,1.15
2022-09-29T01:18:16.465Z,0.80
2022-09-29T01:22:48.084Z,0.65
2022-09-29T01:27:11.363Z,0.77
2022-09-29T01:31:27.444Z,0.60
2022-09-29T01:35:41.924Z,0.40
2022-09-29T01:39:53.307Z,0.60
2022-09-29T01:44:04.010Z,0.60
2022-09-29T01:48:12.883Z,0.80
2022-09-29T01:52:20.235Z,0.43
2022-09-29T01:56:29.053Z,0.85
2022-09-29T02:00:37.291Z,0.77
2022-09-29T02:04:44.579Z,1.13
2022-09-29T02:08:53.980Z,1.15
2022-09-29T02:12:58.757Z,0.80
2022-09-29T02:17:06.768Z,1.02
2022-09-29T02:21:11.977Z,0.90
2022-09-29T02:25:18.565Z,1.30
2022-09-29T02:29:22.274Z,0.60
2022-09-29T02:33:27.296Z,1.15
2022-09-29T02:37:48.289Z,1.10
2022-09-29T02:41:58.304Z,1.08
2022-09-29T02:46:16.118Z,1.40
2022-09-29T02:50:32.868Z,1.35
2022-09-29T02:54:51.073Z,1.15
2022-09-29T02:59:01.439Z,1.10
2022-09-29T03:03:04.941Z,1.50
2022-09-29T03:07:08.235Z,1.23
2022-09-29T03:11:12.951Z,1.48
2022-09-29T03:15:16.687Z,1.10
2022-09-29T03:19:19.639Z,1.20
2022-09-29T03:23:22.739Z,1.00
2022-09-29T03:27:27.539Z,1.73
2022-09-29T03:31:31.159Z,1.50
2022-09-29T03:35:34.261Z,1.50
2022-09-29T03:39:38.315Z,1.48
2022-09-29T03:43:43.123Z,1.80
2022-09-29T03:47:46.603Z,2.10
2022-09-29T03:51:49.727Z,1.67
2022-09-29T03:55:54.010Z,1.77
2022-09-29T03:59:59.242Z,1.55
2022-09-29T04:04:03.206Z,1.05
2022-09-29T04:08:06.264Z,0.55
2022-09-29T04:12:09.779Z,1.00
2022-09-29T04:16:14.619Z,1.35
2022-09-29T04:20:18.160Z,1.30
2022-09-29T04:24:21.119Z,1.00
2022-09-29T04:28:24.619Z,0.90
2022-09-29T04:32:29.484Z,1.20
2022-09-29T04:36:32.825Z,1.00
2022-09-29T04:40:36.081Z,0.63
2022-09-29T04:44:39.626Z,1.33
2022-09-29T04:48:44.839Z,1.08
2022-09-29T04:52:47.936Z,1.35
2022-09-29T04:56:51.716Z,1.17
2022-09-29T05:00:55.755Z,0.85
2022-09-29T05:05:00.864Z,1.35
2022-09-29T05:09:03.954Z,1.55
2022-09-29T05:13:07.424Z,1.20
2022-09-29T05:17:11.050Z,0.85
2022-09-29T05:21:27.788Z,1.15
2022-09-29T05:25:33.041Z,1.55
2022-09-29T05:29:36.718Z,1.38
2022-09-29T05:33:40.067Z,0.98
2022-09-29T05:37:44.914Z,1.30
2022-09-29T05:41:49.232Z,1.17
2022-09-29T05:45:52.953Z,0.90
2022-09-29T05:49:56.805Z,1.15
2022-09-29T05:54:02.744Z,0.90
2022-09-29T05:58:06.499Z,0.95
2022-09-29T06:02:10.497Z,0.70
2022-09-29T06:06:16.678Z,1.10
2022-09-29T06:10:21.572Z,1.10
2022-09-29T06:14:24.579Z,0.82
2022-09-29T06:18:28.034Z,1.10
2022-09-29T06:22:31.426Z,1.13
2022-09-29T06:26:36.436Z,0.80
2022-09-29T06:30:39.470Z,1.17
2022-09-29T06:34:58.740Z,3.22
2022-09-29T06:39:02.679Z,3.17
2022-09-29T06:43:07.405Z,2.97
2022-09-29T06:47:11.374Z,1.92
2022-09-29T06:51:15.415Z,2.40
2022-09-29T06:55:18.460Z,2.05
2022-09-29T06:59:23.113Z,1.17
2022-09-29T07:03:26.816Z,1.33
2022-09-29T07:07:30.006Z,0.75
2022-09-29T07:11:33.500Z,1.08
2022-09-29T07:15:38.643Z,0.65
2022-09-29T07:19:41.612Z,1.23
2022-09-29T07:23:45.867Z,0.60
2022-09-29T07:27:51.597Z,0.68
2022-09-29T07:31:56.715Z,0.85
2022-09-29T07:36:01.178Z,1.05
2022-09-29T07:40:04.740Z,0.55
2022-09-29T07:44:08.357Z,0.75
2022-09-29T07:48:13.655Z,1.13
2022-09-29T07:52:17.329Z,0.90
2022-09-29T07:56:22.461Z,1.20
2022-09-29T08:00:25.895Z,0.88
2022-09-29T08:04:31.771Z,0.98
2022-09-29T08:08:36.902Z,0.90
2022-09-29T08:12:44.283Z,0.68
2022-09-29T08:16:47.748Z,0.60
2022-09-29T08:20:54.795Z,0.52
2022-09-29T08:25:00.410Z,1.17
2022-09-29T08:29:08.130Z,0.82
2022-09-29T08:33:14.943Z,0.80
2022-09-29T08:37:19.443Z,1.15
2022-09-29T08:41:39.991Z,0.90
2022-09-29T08:45:59.467Z,1.02
2022-09-29T08:50:08.158Z,0.98
2022-09-29T08:54:32.675Z,0.80
2022-09-29T08:58:41.306Z,0.90
2022-09-29T09:03:05.631Z,0.73
2022-09-29T09:07:16.903Z,1.02
2022-09-29T09:11:37.857Z,1.60
2022-09-29T09:15:59.215Z,1.20
2022-09-29T09:20:15.898Z,1.25
2022-09-29T09:24:26.275Z,1.08
2022-09-29T09:28:36.280Z,1.40
2022-09-29T09:32:43.534Z,0.95
2022-09-29T09:37:00.746Z,1.48
2022-09-29T09:41:06.014Z,1.58
2022-09-29T09:45:18.080Z,1.52
2022-09-29T09:49:27.527Z,2.37
2022-09-29T09:53:36.489Z,1.85
2022-09-29T09:57:58.624Z,2.03
2022-09-29T10:02:03.743Z,1.90
2022-09-29T10:06:09.225Z,1.80
2022-09-29T10:10:19.670Z,1.73
2022-09-29T10:14:26.283Z,1.17
2022-09-29T10:18:39.222Z,1.95
2022-09-29T10:22:42.282Z,1.83
2022-09-29T10:26:48.510Z,1.80
2022-09-29T10:30:51.960Z,1.85
2022-09-29T10:35:08.264Z,2.00
2022-09-29T10:39:32.516Z,1.85
2022-09-29T10:43:38.831Z,1.65
2022-09-29T10:47:42.395Z,1.60
2022-09-29T10:51:55.989Z,1.60
2022-09-29T10:56:02.460Z,1.42
2022-09-29T11:00:07.426Z,1.65
2022-09-29T11:04:19.736Z,1.73
2022-09-29T11:08:27.799Z,1.25
2022-09-29T11:12:35.004Z,1.75
2022-09-29T11:16:39.172Z,0.95
2022-09-29T11:20:43.508Z,0.40
2022-09-29T11:25:23.853Z,1.08
2022-09-29T11:29:44.695Z,0.95
2022-09-29T11:34:01.492Z,1.45
2022-09-29T11:38:38.188Z,0.73
2022-09-29T11:42:58.998Z,1.15
2022-09-29T11:47:12.959Z,0.98
2022-09-29T11:51:25.681Z,0.70
2022-09-29T11:59:59.850Z,0.98
2022-09-29T12:04:20.551Z,0.75
2022-09-29T12:08:36.543Z,0.82
2022-09-29T12:12:55.822Z,0.75
2022-09-29T12:17:04.053Z,0.95
2022-09-29T12:21:14.073Z,1.00
2022-09-29T12:25:25.095Z,0.80
2022-09-29T12:29:35.558Z,0.57
2022-09-29T12:33:44.671Z,0.80
2022-09-29T12:37:51.383Z,0.70
2022-09-29T12:42:04.618Z,0.32
2022-09-29T12:46:19.170Z,0.20
2022-09-29T12:50:29.793Z,0.40
2022-09-29T12:54:38.197Z,0.40
2022-09-29T12:58:47.256Z,0.25
2022-09-29T13:03:13.158Z,0.35
2022-09-29T13:07:42.908Z,0.30
2022-09-29T13:12:00.397Z,0.15
2022-09-29T13:16:14.190Z,0.20
2022-09-29T13:20:44.140Z,0.30
2022-09-29T13:24:57.438Z,0.47
2022-09-29T13:29:04.363Z,0.20
2022-09-29T13:33:11.724Z,1.85
2022-09-29T13:37:18.687Z,0.40
2022-09-29T13:41:39.170Z,0.45
2022-09-29T13:45:45.145Z,0.65
2022-09-29T13:49:48.231Z,0.40
2022-09-29T13:54:21.448Z,0.50
2022-09-29T13:58:28.048Z,0.20
2022-09-29T14:02:35.862Z,0.20
2022-09-29T14:06:48.505Z,0.22
2022-09-29T14:11:01.047Z,0.50
2022-09-29T14:15:09.636Z,0.68
2022-09-29T14:19:26.624Z,0.40
2022-09-29T14:23:53.419Z,0.50
2022-09-29T14:28:04.320Z,0.50
2022-09-29T14:32:19.502Z,0.40
2022-09-29T14:36:26.162Z,0.47
2022-09-29T14:40:29.586Z,0.35
2022-09-29T14:44:52.252Z,0.30
2022-09-29T14:49:25.747Z,0.77
2022-09-29T14:53:42.404Z,0.63
2022-09-29T14:58:04.217Z,0.10
2022-09-29T15:02:21.503Z,0.57
2022-09-29T15:06:28.168Z,0.40
2022-09-29T15:10:33.920Z,0.52
2022-09-29T15:14:41.543Z,0.40
2022-09-29T15:19:03.570Z,0.60
2022-09-29T15:23:28.425Z,0.40
2022-09-29T15:27:35.176Z,0.70
2022-09-29T15:31:38.646Z,0.85
2022-09-29T15:35:45.303Z,1.40
2022-09-29T15:39:54.491Z,1.00
2022-09-29T15:43:59.401Z,1.10
2022-09-29T15:48:06.001Z,1.17
2022-09-29T15:52:15.542Z,0.70
2022-09-29T15:56:19.956Z,1.00
2022-09-29T16:00:58.492Z,1.23
2022-09-29T16:05:04.462Z,1.20
2022-09-29T16:09:18.860Z,0.90
2022-09-29T16:13:25.894Z,1.02
2022-09-29T16:17:29.799Z,1.30
2022-09-29T16:21:37.808Z,1.50
2022-09-29T16:25:41.308Z,1.20
2022-09-29T16:29:46.251Z,1.55
2022-09-29T16:33:56.057Z,16.50
2022-09-29T16:37:59.901Z,11.70
2022-09-29T16:42:07.300Z,3.03
2022-09-29T16:46:16.011Z,1.85
2022-09-29T16:50:22.583Z,1.67
2022-09-29T16:54:28.651Z,1.30
2022-09-29T16:58:32.469Z,1.65
2022-09-29T17:02:37.309Z,1.83
2022-09-29T17:06:46.698Z,1.45
2022-09-29T17:10:51.365Z,1.20
2022-09-29T17:14:54.386Z,2.53
2022-09-29T17:19:02.363Z,2.10
2022-09-29T17:23:06.627Z,2.85
2022-09-29T17:27:27.092Z,2.10
2022-09-29T17:31:30.138Z,1.23
2022-09-29T17:35:38.356Z,1.00
2022-09-29T17:39:41.359Z,1.10
2022-09-29T17:43:48.185Z,1.60
2022-09-29T17:47:51.679Z,1.55
2022-09-29T17:51:56.177Z,1.30
2022-09-29T17:55:59.892Z,1.13
2022-09-29T18:00:03.245Z,1.50
2022-09-29T18:04:07.969Z,1.38
2022-09-29T18:08:16.758Z,1.02
2022-09-29T18:12:19.795Z,1.20
2022-09-29T18:16:25.999Z,0.90
2022-09-29T18:20:31.358Z,1.23
2022-09-29T18:24:36.930Z,1.00
2022-09-29T18:28:40.917Z,0.95
2022-09-29T18:32:43.890Z,0.93
2022-09-29T18:36:47.559Z,1.10
2022-09-29T18:40:56.017Z,1.40
2022-09-29T18:44:59.019Z,1.13
2022-09-29T18:49:05.980Z,0.90
2022-09-29T18:53:10.908Z,0.70
2022-09-29T19:01:24.697Z,0.93
2022-09-29T19:05:31.489Z,1.00
2022-09-29T19:09:34.497Z,0.90
2022-09-29T19:13:39.837Z,0.90
2022-09-29T19:17:45.536Z,0.88
2022-09-29T19:21:48.557Z,0.90
2022-09-29T19:25:53.991Z,1.13
2022-09-29T19:30:03.023Z,1.00
2022-09-29T19:34:07.978Z,1.02
2022-09-29T19:38:11.336Z,1.55
2022-09-29T19:42:14.913Z,1.20
2022-09-29T19:46:19.906Z,1.50
2022-09-29T19:50:42.723Z,1.10
2022-09-29T19:54:46.167Z,1.50
2022-09-29T19:58:51.171Z,1.25
2022-09-29T20:02:54.751Z,1.55
2022-09-29T20:07:02.257Z,1.48
2022-09-29T20:11:10.642Z,1.17
2022-09-29T20:15:13.688Z,1.27
2022-09-29T20:19:18.810Z,1.60
2022-09-29T20:23:24.811Z,1.55
2022-09-29T20:27:27.897Z,1.17
2022-09-29T20:31:32.299Z,0.80
2022-09-29T20:35:35.606Z,1.65
2022-09-29T20:39:41.478Z,1.52
2022-09-29T20:43:47.594Z,1.25
2022-09-29T20:47:50.990Z,1.38
2022-09-29T20:51:55.147Z,1.20
2022-09-29T20:56:16.821Z,1.20
2022-09-29T21:00:19.778Z,1.13
2022-09-29T21:04:23.828Z,1.60
2022-09-29T21:08:28.845Z,1.30
2022-09-29T21:12:34.711Z,1.55
2022-09-29T21:16:38.237Z,1.30
2022-09-29T21:20:41.837Z,1.90
2022-09-29T21:24:44.933Z,1.52
2022-09-29T21:28:52.940Z,2.00
2022-09-29T21:32:56.092Z,1.77
2022-09-29T21:36:59.520Z,1.92
2022-09-29T21:41:04.255Z,1.85
2022-09-29T21:45:11.036Z,1.67
2022-09-29T21:49:16.671Z,2.08
2022-09-29T21:53:20.219Z,2.40
2022-09-29T21:57:23.310Z,2.92
2022-09-29T22:01:29.113Z,2.65
2022-09-29T22:05:32.664Z,3.05
2022-09-29T22:09:36.294Z,3.58
2022-09-29T22:13:39.276Z,3.42
2022-09-29T22:17:44.175Z,3.42
2022-09-29T22:21:47.471Z,3.45
2022-09-29T22:25:50.901Z,3.97
2022-09-29T22:29:54.825Z,3.78
2022-09-29T22:34:01.918Z,3.90
2022-09-29T22:38:08.159Z,3.55
2022-09-29T22:42:11.716Z,2.65
2022-09-29T22:46:14.682Z,3.67
2022-09-29T22:50:19.878Z,3.20
2022-09-29T22:54:23.120Z,2.97
2022-09-29T22:58:29.608Z,3.28
2022-09-29T23:02:32.599Z,3.03
2022-09-29T23:06:37.542Z,2.72
2022-09-29T23:10:48.316Z,3.08
2022-09-29T23:14:51.803Z,3.25
2022-09-29T23:18:58.610Z,3.08
2022-09-29T23:23:03.576Z,2.72
2022-09-29T23:27:06.884Z,2.80
2022-09-29T23:31:11.600Z,3.28
2022-09-29T23:35:15.323Z,3.35
2022-09-29T23:39:20.541Z,4.28
2022-09-29T23:43:24.129Z,3.42
2022-09-29T23:47:27.300Z,3.65
2022-09-29T23:51:32.745Z,4.30
2022-09-29T23:55:37.198Z,3.28
2022-09-29T23:59:40.813Z,3.88
